Ana Sayfa
METAR-TAF:

METAR-TAF

Havaalanları :

Yaoundé, Kamerun

Enlem: 03-50N, Boylam: 011-31E, yükseklik: 751 m

Güncel hava durumu gözlemi

Rapor saat 12:00 UTC de 29 dakika önce yapıldı.
Rüzgar kuzeydan 5 kt, batı ve doğu/kuzeydoğu arasında değişken
Sıcaklık 28°C
Nem 66%
Basınç 1014 hPa
Görüş mesafesi: 8000 m
2000 ft yükseklikte parçalı çok bulutlu

METAR: FKYS 081200Z 35005KT 280V070 8000 BKN020 28/21 Q1014 NOSIG

Saat: 13:29 (12:29 UTC)

Tahmin

Rapor saat 11:00 UTC de 1 saat ve 29 dakika önce yapıldı.
Ayın 08'si saat 12 UTC'den ayın 09'si saat 12 UTC'ye kadar geçerli Tahmin
Rüzgar batı/güneybatıdan 5 kt
Görüş mesafesi: 8000 m
2000 ft yükseklikte parçalı çok bulutlu
Dönüşüyor
ayın 08'si saat 20 UTC'den ayın 08'si saat 22 UTC'ye kadar
600 ft yükseklikte parçalı çok bulutlu
Geçici
ayın 09'si saat 03 UTC'den ayın 09'si saat 07 UTC'ye kadar
Görüş mesafesi: 2500 m
Pus

TAF: FKYS 081100Z 0812/0912 25005KT 8000 BKN020 BECMG 0820/0822 BKN006 TEMPO 0903/0907 2500 BR

4.000'den fazla havaalanı için hava durumu gözlemleri ve tahminleri (METAR ve TAF raporları).

Kullanılabilir istasyonlar harita üzerinde sarı ve kırmızı noktalarla gösterilir.

İstasyonun adını görmek için fareyi noktanın üzerinde gezdirin.

Sonrasında hava gözlem ve tahminlerini görmek için tıklayın.

Haritayı değiştirmek için: yaklaştırmak için siyah artı işaretli yeşil düğmeye ve uzaklaştırmak için de eksi işaretli düğmeye hızla tıklayın; bitişik haritalar için yeşil okları kullanın.


METAR-TAF: